Time;durP1;ratioP1;P1;durP2;ratioP2;P2;SDS_P1;SDS_P2;PMS_P1;PMS_P2;Temp;Humidity;BMP_temperature;BMP_pressure;BME280_temperature;BME280_humidity;BME280_pressure;Samples;Min_cycle;Max_cycle;Signal;HPM_P1;HPM_P2
2023/09/03 00:00:25;;;;;;;;;;;;;;;18.18;82.07;95698.84;5094733;28;1030;-59
2023/09/03 00:02:53;;;;;;;;;;;;;;;18.12;82.88;95694.22;5094522;28;1083;-59
2023/09/03 00:05:19;;;;;;;;;;;;;;;18.20;82.35;95694.06;5099665;27;2555;-60
2023/09/03 00:07:45;;;;;;;;;;;;;;;18.14;82.48;95690.28;5135731;27;1064;-60
2023/09/03 00:10:11;;;;;;;;;;;;;;;18.06;82.03;95690.41;5135308;27;1996;-60
2023/09/03 00:12:38;;;;;;;;;;;;;;;17.91;83.34;95698.59;5135378;27;1072;-59
2023/09/03 00:15:05;;;;;;;;;;;;;;;17.94;83.22;95691.97;5135152;27;1022;-59
2023/09/03 00:17:31;;;;;;;;;;;;;;;18.08;81.95;95693.78;5134481;27;1052;-59
2023/09/03 00:19:57;;;;;;;;;;;;;;;17.86;83.34;95701.03;5135518;27;1034;-59
2023/09/03 00:22:23;;;;;;;;;;;;;;;17.79;83.56;95704.69;5135159;27;1185;-59
2023/09/03 00:24:49;;;;;;;;;;;;;;;17.83;83.48;95700.56;5135409;27;979;-59
2023/09/03 00:27:15;;;;;;;;;;;;;;;17.69;83.59;95705.84;5134923;27;1047;-59
2023/09/03 00:29:41;;;;;;;;;;;;;;;17.56;84.07;95701.09;5134861;27;1913;-59
2023/09/03 00:32:07;;;;;;;;;;;;;;;17.49;84.69;95705.63;5135216;27;1048;-59
2023/09/03 00:34:33;;;;;;;;;;;;;;;17.40;85.13;95700.53;5135145;27;1021;-59
2023/09/03 00:36:59;;;;;;;;;;;;;;;17.37;84.69;95702.56;5135044;27;1060;-59
2023/09/03 00:39:25;;;;;;;;;;;;;;;17.40;85.06;95705.94;5134716;27;914;-59
2023/09/03 00:41:51;;;;;;;;;;;;;;;17.62;83.70;95706.78;5135108;27;997;-60
2023/09/03 00:44:17;;;;;;;;;;;;;;;17.64;83.34;95705.59;5134884;27;1052;-59
2023/09/03 00:46:43;;;;;;;;;;;;;;;17.60;83.52;95711.56;5116809;27;1037;-59
2023/09/03 00:49:13;;;;;;;;;;;;;;;17.68;83.08;95701.47;5134863;27;1019;-59
2023/09/03 00:51:39;;;;;;;;;;;;;;;17.64;83.18;95705.59;5134753;27;1905;-59
2023/09/03 00:54:05;;;;;;;;;;;;;;;17.54;84.23;95699.63;5134576;27;1162;-59
2023/09/03 00:56:31;;;;;;;;;;;;;;;17.51;84.24;95691.91;5134833;27;1029;-59
2023/09/03 00:58:59;;;;;;;;;;;;;;;17.43;84.36;95694.72;5134554;27;988;-60
2023/09/03 01:01:27;;;;;;;;;;;;;;;17.23;85.04;95695.34;5134752;27;1011;-59
2023/09/03 01:03:53;;;;;;;;;;;;;;;17.23;85.15;95695.34;5134435;27;1063;-59
2023/09/03 01:06:19;;;;;;;;;;;;;;;17.33;84.24;95695.88;5122727;27;1089;-60
2023/09/03 01:08:45;;;;;;;;;;;;;;;17.27;84.23;95691.22;5113865;28;1036;-59
2023/09/03 01:11:26;;;;;;;;;;;;;;;17.20;84.75;95695.69;5113690;28;1902;-60
2023/09/03 01:13:57;;;;;;;;;;;;;;;17.07;85.46;95699.06;5114192;28;968;-59
2023/09/03 01:16:33;;;;;;;;;;;;;;;17.08;85.54;95710.75;5113871;28;1965;-59
2023/09/03 01:19:08;;;;;;;;;;;;;;;17.31;83.74;95703.31;5113636;28;996;-59
2023/09/03 01:21:44;;;;;;;;;;;;;;;17.17;85.16;95710.44;5104104;28;1202;-59
2023/09/03 01:24:22;;;;;;;;;;;;;;;17.08;85.01;95716.13;5093287;28;1115;-59
2023/09/03 01:27:03;;;;;;;;;;;;;;;16.72;86.23;95714.16;5093447;28;1045;-59
2023/09/03 01:29:30;;;;;;;;;;;;;;;16.53;87.48;95705.56;5092146;28;2530;-59
2023/09/03 01:31:57;;;;;;;;;;;;;;;16.64;87.44;95719.63;5117774;28;1988;-59
2023/09/03 01:34:24;;;;;;;;;;;;;;;16.77;87.01;95719.84;5117979;28;1012;-59
2023/09/03 01:36:51;;;;;;;;;;;;;;;16.76;86.77;95715.47;5117753;28;1036;-59
2023/09/03 01:39:17;;;;;;;;;;;;;;;16.64;87.10;95716.94;5117792;28;992;-59
2023/09/03 01:41:42;;;;;;;;;;;;;;;16.73;86.95;95713.97;5117981;28;1036;-60
2023/09/03 01:44:09;;;;;;;;;;;;;;;16.66;86.51;95712.22;5118153;28;1021;-59
2023/09/03 01:46:40;;;;;;;;;;;;;;;16.63;86.80;95716.09;5117594;28;1041;-59
2023/09/03 01:49:45;;;;;;;;;;;;;;;16.59;86.90;95710.22;5117451;28;1099;-59
2023/09/03 01:52:29;;;;;;;;;;;;;;;16.46;87.74;95714.59;5014765;28;1170;-59
2023/09/03 01:54:57;;;;;;;;;;;;;;;16.42;87.28;95713.28;5014826;28;1024;-60
2023/09/03 01:57:29;;;;;;;;;;;;;;;16.25;88.99;95721.53;5077030;28;1069;-59
2023/09/03 01:59:56;;;;;;;;;;;;;;;16.31;88.23;95718.09;5117327;28;1103;-59
2023/09/03 02:02:24;;;;;;;;;;;;;;;16.42;87.82;95718.69;5115953;28;2513;-59
2023/09/03 02:04:51;;;;;;;;;;;;;;;16.56;87.50;95715.16;5117216;28;1159;-60
2023/09/03 02:07:17;;;;;;;;;;;;;;;16.59;86.95;95712.09;5136715;27;1084;-60
2023/09/03 02:09:43;;;;;;;;;;;;;;;16.52;87.25;95714.72;5137690;27;1012;-59
2023/09/03 02:12:09;;;;;;;;;;;;;;;16.49;87.38;95714.25;5137910;27;1004;-59
2023/09/03 02:14:35;;;;;;;;;;;;;;;16.48;87.90;95718.78;5137867;27;939;-59
2023/09/03 02:17:01;;;;;;;;;;;;;;;16.39;87.52;95718.03;5137853;27;1016;-60
2023/09/03 02:19:27;;;;;;;;;;;;;;;16.17;88.22;95722.44;5137765;27;953;-61
2023/09/03 02:21:53;;;;;;;;;;;;;;;16.04;89.13;95726.78;5137720;27;1173;-61
2023/09/03 02:24:19;;;;;;;;;;;;;;;16.12;89.04;95722.13;5137452;27;962;-61
2023/09/03 02:26:46;;;;;;;;;;;;;;;16.19;88.40;95715.00;5137593;27;1071;-60
2023/09/03 02:29:12;;;;;;;;;;;;;;;16.20;88.67;95719.38;5137611;27;1076;-60
2023/09/03 02:31:38;;;;;;;;;;;;;;;16.06;88.97;95720.16;5137264;27;1905;-60
2023/09/03 02:34:05;;;;;;;;;;;;;;;15.84;90.00;95711.09;5137590;27;963;-60
2023/09/03 02:36:33;;;;;;;;;;;;;;;15.85;90.33;95711.91;5137281;27;1002;-60
2023/09/03 02:39:00;;;;;;;;;;;;;;;15.75;90.40;95713.00;5137467;27;995;-60
2023/09/03 02:41:26;;;;;;;;;;;;;;;15.78;90.20;95704.56;5136328;27;1047;-61
2023/09/03 02:43:52;;;;;;;;;;;;;;;15.98;89.41;95713.00;5137044;27;1086;-61
2023/09/03 02:46:18;;;;;;;;;;;;;;;16.17;88.32;95708.94;5137274;27;992;-61
2023/09/03 02:48:44;;;;;;;;;;;;;;;16.13;88.17;95710.34;5136981;27;1039;-60
2023/09/03 02:51:10;;;;;;;;;;;;;;;16.14;88.50;95703.94;5136729;27;1981;-60
2023/09/03 02:53:36;;;;;;;;;;;;;;;16.06;88.75;95704.00;5136982;27;975;-60
2023/09/03 02:56:02;;;;;;;;;;;;;;;15.97;89.68;95718.56;5136796;27;1033;-61
2023/09/03 02:58:28;;;;;;;;;;;;;;;15.95;89.61;95712.50;5137042;27;1057;-60
2023/09/03 03:00:55;;;;;;;;;;;;;;;15.95;89.44;95712.50;5136938;27;1068;-60
2023/09/03 03:03:20;;;;;;;;;;;;;;;15.90;89.08;95710.38;5118514;27;965;-60
2023/09/03 03:05:51;;;;;;;;;;;;;;;15.57;89.91;95705.16;5129715;27;1234;-61
2023/09/03 03:08:17;;;;;;;;;;;;;;;15.34;91.06;95702.44;5115978;28;1032;-61
2023/09/03 03:10:43;;;;;;;;;;;;;;;15.29;91.62;95717.44;5116107;28;1992;-61
2023/09/03 03:13:09;;;;;;;;;;;;;;;15.25;92.43;95718.81;5116166;28;955;-60
2023/09/03 03:15:35;;;;;;;;;;;;;;;15.20;92.96;95719.38;5116390;28;1004;-62
2023/09/03 03:18:01;;;;;;;;;;;;;;;15.40;92.34;95709.84;5115864;28;1083;-60
2023/09/03 03:20:27;;;;;;;;;;;;;;;15.67;91.13;95710.34;5115567;28;1169;-61
2023/09/03 03:22:53;;;;;;;;;;;;;;;15.72;90.89;95720.56;5095425;28;1204;-60
2023/09/03 03:25:19;;;;;;;;;;;;;;;15.72;90.44;95717.88;5095178;28;1279;-63
2023/09/03 03:27:45;;;;;;;;;;;;;;;15.60;90.87;95712.91;5095454;28;965;-61
2023/09/03 03:30:11;;;;;;;;;;;;;;;15.62;90.35;95712.72;5095077;28;1910;-60
2023/09/03 03:32:37;;;;;;;;;;;;;;;15.55;90.34;95715.28;5095335;28;1011;-59
2023/09/03 03:35:03;;;;;;;;;;;;;;;15.40;90.13;95723.31;5095263;28;964;-61
2023/09/03 03:37:29;;;;;;;;;;;;;;;15.20;90.57;95725.59;5095319;28;1007;-61
2023/09/03 03:39:55;;;;;;;;;;;;;;;15.07;92.32;95724.47;5094986;28;1032;-62
2023/09/03 03:42:21;;;;;;;;;;;;;;;15.27;91.70;95722.19;5095144;28;1036;-60
2023/09/03 03:44:47;;;;;;;;;;;;;;;15.33;91.19;95724.19;5094977;28;1024;-61
2023/09/03 03:47:13;;;;;;;;;;;;;;;15.40;90.90;95717.91;5094997;28;1041;-60
2023/09/03 03:49:39;;;;;;;;;;;;;;;15.48;91.04;95718.88;5094955;28;973;-60
2023/09/03 03:52:05;;;;;;;;;;;;;;;15.40;90.99;95722.44;5094840;28;1971;-60
2023/09/03 03:54:32;;;;;;;;;;;;;;;15.46;90.11;95718.19;5094646;28;969;-59
2023/09/03 03:56:58;;;;;;;;;;;;;;;15.49;89.75;95725.94;5094917;28;988;-60
2023/09/03 03:59:24;;;;;;;;;;;;;;;15.48;89.23;95727.81;5076574;28;1073;-59
2023/09/03 04:01:50;;;;;;;;;;;;;;;15.37;90.79;95725.50;5094824;28;1033;-59
2023/09/03 04:04:16;;;;;;;;;;;;;;;15.17;91.91;95731.31;5094449;28;1048;-59
2023/09/03 04:06:42;;;;;;;;;;;;;;;15.34;91.49;95726.69;5109138;28;1080;-60
2023/09/03 04:09:08;;;;;;;;;;;;;;;15.59;90.24;95724.72;5115064;28;1063;-60
2023/09/03 04:11:34;;;;;;;;;;;;;;;15.65;89.65;95731.25;5096987;28;1999;-59
2023/09/03 04:14:00;;;;;;;;;;;;;;;15.74;89.90;95740.97;5115044;28;993;-59
2023/09/03 04:16:26;;;;;;;;;;;;;;;15.72;89.88;95734.03;5114560;28;1032;-59
2023/09/03 04:18:52;;;;;;;;;;;;;;;15.72;89.45;95732.19;5114639;28;1111;-59
2023/09/03 04:21:18;;;;;;;;;;;;;;;15.60;89.05;95728.22;5122064;27;1182;-59
2023/09/03 04:23:44;;;;;;;;;;;;;;;15.38;89.73;95728.00;5115667;27;2576;-59
2023/09/03 04:26:11;;;;;;;;;;;;;;;15.40;90.26;95728.69;5135047;27;1095;-60
2023/09/03 04:28:37;;;;;;;;;;;;;;;15.37;90.76;95726.34;5135214;27;1051;-60
2023/09/03 04:31:10;;;;;;;;;;;;;;;15.69;89.34;95729.88;5134966;27;1956;-60
2023/09/03 04:33:36;;;;;;;;;;;;;;;16.15;87.08;95727.19;5135105;27;949;-59
2023/09/03 04:36:03;;;;;;;;;;;;;;;16.31;87.03;95728.06;5135461;27;1115;-59
2023/09/03 04:38:29;;;;;;;;;;;;;;;16.33;86.91;95736.81;5134702;27;1052;-59
2023/09/03 04:40:55;;;;;;;;;;;;;;;16.42;86.91;95741.09;5135100;27;921;-60
2023/09/03 04:43:22;;;;;;;;;;;;;;;16.49;86.89;95744.75;5134985;27;1014;-59
2023/09/03 04:45:49;;;;;;;;;;;;;;;16.64;86.54;95733.13;5135071;27;1016;-59
2023/09/03 04:48:15;;;;;;;;;;;;;;;16.76;86.16;95734.34;5134794;27;1042;-59
2023/09/03 04:50:41;;;;;;;;;;;;;;;16.77;86.21;95727.94;5134615;27;1975;-58
2023/09/03 04:53:07;;;;;;;;;;;;;;;16.91;86.19;95723.59;5134862;27;1009;-59
2023/09/03 04:55:34;;;;;;;;;;;;;;;17.14;85.58;95723.47;5134562;27;1044;-59
2023/09/03 04:58:00;;;;;;;;;;;;;;;17.41;84.02;95723.81;5134774;27;1008;-59
2023/09/03 05:00:27;;;;;;;;;;;;;;;17.41;84.07;95711.13;5134715;27;1138;-59
2023/09/03 05:02:53;;;;;;;;;;;;;;;17.40;84.65;95703.22;5134484;27;1026;-59
2023/09/03 05:05:19;;;;;;;;;;;;;;;17.42;85.08;95706.59;5134077;27;1221;-60
2023/09/03 05:07:47;;;;;;;;;;;;;;;17.50;84.69;95707.28;5134387;27;1004;-59
2023/09/03 05:10:13;;;;;;;;;;;;;;;17.72;84.64;95702.75;5133767;27;1902;-60
2023/09/03 05:12:40;;;;;;;;;;;;;;;17.89;83.83;95702.50;5134476;27;1020;-60
2023/09/03 05:15:10;;;;;;;;;;;;;;;18.02;83.10;95705.38;5134293;27;1033;-60
2023/09/03 05:17:37;;;;;;;;;;;;;;;18.11;83.09;95715.00;5134581;27;1029;-60
2023/09/03 05:20:03;;;;;;;;;;;;;;;18.08;82.93;95715.41;5134537;28;1192;-60
2023/09/03 05:22:29;;;;;;;;;;;;;;;18.15;83.60;95715.47;5116693;28;1234;-58
2023/09/03 05:24:55;;;;;;;;;;;;;;;18.39;82.41;95716.91;5113993;28;974;-60
2023/09/03 05:27:21;;;;;;;;;;;;;;;18.79;80.33;95710.97;5113757;28;1027;-60
2023/09/03 05:29:47;;;;;;;;;;;;;;;19.04;77.88;95714.88;5113837;28;964;-60
2023/09/03 05:32:14;;;;;;;;;;;;;;;19.21;77.01;95707.25;5113640;28;1910;-60
2023/09/03 05:34:40;;;;;;;;;;;;;;;19.39;76.49;95708.56;5113645;28;1026;-59
2023/09/03 05:37:06;;;;;;;;;;;;;;;19.58;74.58;95713.25;5113180;28;1052;-59
2023/09/03 05:39:32;;;;;;;;;;;;;;;19.68;74.41;95716.41;5113289;28;1032;-60
2023/09/03 05:41:58;;;;;;;;;;;;;;;19.83;74.42;95712.72;5113721;28;962;-60
2023/09/03 05:44:24;;;;;;;;;;;;;;;19.92;73.80;95714.22;5113711;28;1033;-60
2023/09/03 05:46:49;;;;;;;;;;;;;;;19.79;73.42;95712.28;5113644;28;965;-59
2023/09/03 05:49:15;;;;;;;;;;;;;;;19.87;74.18;95720.25;5113424;28;1140;-60
2023/09/03 05:51:41;;;;;;;;;;;;;;;20.05;73.93;95708.81;5113260;28;1909;-60
2023/09/03 05:54:08;;;;;;;;;;;;;;;20.36;71.83;95706.53;5113481;28;1100;-60
2023/09/03 05:56:37;;;;;;;;;;;;;;;20.55;69.50;95702.97;5113345;28;1071;-59
2023/09/03 05:59:05;;;;;;;;;;;;;;;20.43;71.33;95708.19;5095494;28;954;-59
2023/09/03 06:01:32;;;;;;;;;;;;;;;20.42;70.73;95711.94;5113576;28;965;-60
2023/09/03 06:04:02;;;;;;;;;;;;;;;20.38;72.33;95705.28;5113281;28;1065;-60
2023/09/03 06:06:28;;;;;;;;;;;;;;;20.38;72.58;95710.69;5126038;28;1227;-59
2023/09/03 06:08:54;;;;;;;;;;;;;;;20.75;71.41;95708.41;5134135;28;1023;-59
2023/09/03 06:11:20;;;;;;;;;;;;;;;20.91;67.67;95718.00;5133851;28;1906;-59
2023/09/03 06:13:46;;;;;;;;;;;;;;;21.01;69.26;95712.94;5133742;28;1048;-60
2023/09/03 06:16:12;;;;;;;;;;;;;;;21.22;68.20;95711.84;5135396;27;1142;-59
2023/09/03 06:18:38;;;;;;;;;;;;;;;21.53;66.18;95723.91;5137603;27;1981;-61
2023/09/03 06:21:04;;;;;;;;;;;;;;;21.52;66.80;95724.13;5137766;27;1247;-60
2023/09/03 06:23:30;;;;;;;;;;;;;;;21.75;67.79;95718.16;5137437;27;1036;-58
2023/09/03 06:25:56;;;;;;;;;;;;;;;21.71;67.84;95714.22;5137592;27;1034;-60
2023/09/03 06:28:22;;;;;;;;;;;;;;;21.88;68.21;95712.63;5137632;27;965;-60
2023/09/03 06:30:48;;;;;;;;;;;;;;;21.95;64.16;95705.28;5117750;27;2655;-59
2023/09/03 06:33:14;;;;;;;;;;;;;;;22.24;65.79;95705.72;5137549;27;1035;-59
2023/09/03 06:35:40;;;;;;;;;;;;;;;22.70;62.05;95715.41;5137509;27;976;-59
2023/09/03 06:38:06;;;;;;;;;;;;;;;22.79;61.99;95714.06;5137209;27;1152;-59
2023/09/03 06:40:32;;;;;;;;;;;;;;;22.79;61.37;95718.69;5136058;27;2560;-59
2023/09/03 06:42:58;;;;;;;;;;;;;;;22.70;60.66;95709.97;5137030;27;1055;-59
2023/09/03 06:45:24;;;;;;;;;;;;;;;22.59;64.27;95710.69;5137037;27;969;-59
2023/09/03 06:47:50;;;;;;;;;;;;;;;22.85;64.32;95711.53;5136986;27;1092;-59
2023/09/03 06:50:16;;;;;;;;;;;;;;;23.04;62.57;95715.97;5136738;27;1910;-59
2023/09/03 06:52:42;;;;;;;;;;;;;;;23.16;63.98;95719.63;5137112;27;1060;-59
2023/09/03 06:55:08;;;;;;;;;;;;;;;23.37;61.00;95718.34;5137063;27;1061;-59
2023/09/03 06:57:34;;;;;;;;;;;;;;;23.44;62.04;95714.69;5137263;27;1020;-59
2023/09/03 07:00:05;;;;;;;;;;;;;;;23.70;61.16;95721.72;5136811;27;1036;-59
2023/09/03 07:02:32;;;;;;;;;;;;;;;23.66;60.51;95723.25;5136654;27;972;-59
2023/09/03 07:04:59;;;;;;;;;;;;;;;23.88;59.89;95721.69;5118738;27;1024;-60
2023/09/03 07:07:26;;;;;;;;;;;;;;;24.03;59.95;95723.19;5136769;27;953;-59
2023/09/03 07:09:52;;;;;;;;;;;;;;;24.21;60.19;95722.28;5136741;27;1037;-58
2023/09/03 07:12:18;;;;;;;;;;;;;;;24.30;58.15;95729.94;5136570;27;1910;-59
2023/09/03 07:14:44;;;;;;;;;;;;;;;24.38;58.43;95733.38;5136640;27;973;-59
2023/09/03 07:17:10;;;;;;;;;;;;;;;24.42;59.22;95734.63;5136367;27;1040;-59
2023/09/03 07:19:36;;;;;;;;;;;;;;;24.34;58.53;95724.84;5136368;27;1015;-59
2023/09/03 07:22:02;;;;;;;;;;;;;;;24.61;56.68;95721.72;5136342;27;1173;-59
2023/09/03 07:24:28;;;;;;;;;;;;;;;24.80;57.09;95726.03;5136458;27;1039;-59
2023/09/03 07:26:54;;;;;;;;;;;;;;;24.93;57.23;95725.78;5135853;27;1111;-59
2023/09/03 07:29:20;;;;;;;;;;;;;;;24.98;57.85;95725.06;5136207;27;972;-59
2023/09/03 07:31:46;;;;;;;;;;;;;;;24.91;57.08;95727.09;5127035;27;2542;-59
2023/09/03 07:34:15;;;;;;;;;;;;;;;25.07;56.93;95722.81;5115471;28;1036;-59
2023/09/03 07:36:41;;;;;;;;;;;;;;;25.37;56.46;95733.66;5115863;28;1027;-59
2023/09/03 07:39:09;;;;;;;;;;;;;;;25.58;55.60;95736.84;5115657;28;1029;-59
2023/09/03 07:41:36;;;;;;;;;;;;;;;25.75;53.26;95740.47;5115420;28;1115;-59
2023/09/03 07:44:02;;;;;;;;;;;;;;;25.73;53.98;95737.16;5115416;28;1048;-58
2023/09/03 07:46:28;;;;;;;;;;;;;;;25.83;53.71;95740.06;5115207;28;1007;-59
2023/09/03 07:48:54;;;;;;;;;;;;;;;25.99;53.78;95740.41;5115268;28;1095;-58
2023/09/03 07:51:21;;;;;;;;;;;;;;;26.21;53.03;95730.44;5115237;28;1987;-59
2023/09/03 07:53:47;;;;;;;;;;;;;;;26.27;51.52;95734.97;5115467;28;976;-58
2023/09/03 07:56:14;;;;;;;;;;;;;;;26.42;50.60;95741.78;5115190;28;1033;-59
2023/09/03 07:58:42;;;;;;;;;;;;;;;26.52;50.33;95738.38;5115145;28;969;-59
2023/09/03 08:01:12;;;;;;;;;;;;;;;26.49;52.30;95731.50;5114982;28;999;-59
2023/09/03 08:03:42;;;;;;;;;;;;;;;26.44;51.76;95731.38;5115216;28;988;-59
2023/09/03 08:06:08;;;;;;;;;;;;;;;26.57;51.18;95731.06;5114728;28;1092;-57
2023/09/03 08:08:34;;;;;;;;;;;;;;;26.60;52.33;95727.06;5114974;28;981;-60
2023/09/03 08:11:00;;;;;;;;;;;;;;;26.84;50.88;95734.03;5114925;28;1988;-59
2023/09/03 08:13:27;;;;;;;;;;;;;;;27.03;49.93;95726.38;5114786;28;1007;-59
2023/09/03 08:15:53;;;;;;;;;;;;;;;27.24;50.03;95727.50;5114987;28;1020;-59
2023/09/03 08:18:20;;;;;;;;;;;;;;;27.16;48.83;95718.88;5114566;28;2127;-59
2023/09/03 08:20:48;;;;;;;;;;;;;;;27.36;49.09;95721.13;5117589;27;1173;-59
2023/09/03 08:23:14;;;;;;;;;;;;;;;27.41;48.48;95711.03;5135376;27;1031;-59
2023/09/03 08:25:40;;;;;;;;;;;;;;;27.17;50.43;95715.06;5135141;27;1075;-59
2023/09/03 08:28:07;;;;;;;;;;;;;;;27.31;48.95;95713.63;5135072;27;980;-59
2023/09/03 08:30:34;;;;;;;;;;;;;;;27.64;47.82;95720.94;5134693;27;1910;-59
2023/09/03 08:33:00;;;;;;;;;;;;;;;27.87;47.09;95719.03;5135137;27;970;-59
2023/09/03 08:35:27;;;;;;;;;;;;;;;27.84;44.27;95723.09;5134983;27;1048;-59
2023/09/03 08:37:53;;;;;;;;;;;;;;;27.97;45.69;95721.09;5134420;27;1035;-59
2023/09/03 08:40:19;;;;;;;;;;;;;;;28.00;47.03;95710.41;5134575;27;1040;-59
2023/09/03 08:42:48;;;;;;;;;;;;;;;28.09;46.55;95710.75;5135087;27;1009;-59
2023/09/03 08:45:18;;;;;;;;;;;;;;;28.07;46.28;95712.94;5134603;27;1041;-59
2023/09/03 08:47:44;;;;;;;;;;;;;;;28.10;45.12;95703.38;5134675;27;1104;-59
2023/09/03 08:50:14;;;;;;;;;;;;;;;28.04;45.29;95705.22;5134768;27;1909;-59
2023/09/03 08:52:41;;;;;;;;;;;;;;;28.24;44.15;95702.69;5134780;27;1076;-59
2023/09/03 08:55:08;;;;;;;;;;;;;;;28.32;44.25;95687.63;5116458;27;968;-59
2023/09/03 08:57:34;;;;;;;;;;;;;;;28.44;43.64;95687.47;5134516;27;1186;-59
2023/09/03 09:00:05;;;;;;;;;;;;;;;28.83;44.17;95680.94;5134463;27;1978;-59
2023/09/03 09:02:32;;;;;;;;;;;;;;;28.89;43.06;95685.38;5134484;27;1864;-59
2023/09/03 09:04:59;;;;;;;;;;;;;;;28.98;43.23;95681.06;5134621;27;954;-60
2023/09/03 09:07:25;;;;;;;;;;;;;;;29.03;42.33;95675.59;5134359;27;1032;-59
2023/09/03 09:09:52;;;;;;;;;;;;;;;28.89;43.14;95671.63;5134725;27;1022;-60
2023/09/03 09:12:18;;;;;;;;;;;;;;;28.86;42.49;95667.50;5134187;27;1930;-58
2023/09/03 09:15:16;;;;;;;;;;;;;;;29.06;43.03;95668.72;5134272;27;1075;-59
2023/09/03 09:17:42;;;;;;;;;;;;;;;29.18;42.63;95661.94;5089064;28;1474;-60
2023/09/03 09:20:10;;;;;;;;;;;;;;;29.29;41.62;95659.22;5134348;28;980;-59
2023/09/03 09:22:38;;;;;;;;;;;;;;;29.30;41.01;95658.97;5134416;28;1196;-59
2023/09/03 09:25:05;;;;;;;;;;;;;;;29.38;41.68;95661.22;5134228;28;1114;-59
2023/09/03 09:27:34;;;;;;;;;;;;;;;29.41;41.90;95648.03;5134369;28;977;-59
2023/09/03 09:30:11;;;;;;;;;;;;;;;29.39;42.14;95653.78;5115984;28;1905;-59
2023/09/03 09:32:40;;;;;;;;;;;;;;;29.39;42.38;95643.59;5134200;28;912;-59
2023/09/03 09:35:06;;;;;;;;;;;;;;;29.30;41.50;95641.63;5116070;28;1056;-59
2023/09/03 09:37:39;;;;;;;;;;;;;;;29.33;41.23;95641.94;5134030;28;1036;-59
2023/09/03 09:40:09;;;;;;;;;;;;;;;29.20;42.32;95634.97;5134110;28;1078;-59
2023/09/03 09:42:50;;;;;;;;;;;;;;;29.20;41.27;95634.97;5134097;28;1086;-59
2023/09/03 09:45:16;;;;;;;;;;;;;;;29.32;39.26;95634.75;5134098;28;1064;-59
2023/09/03 09:47:42;;;;;;;;;;;;;;;29.47;40.72;95628.47;5134036;28;1045;-59
2023/09/03 09:50:08;;;;;;;;;;;;;;;29.36;39.30;95630.34;5146243;27;2556;-59
2023/09/03 09:52:36;;;;;;;;;;;;;;;29.47;39.58;95628.47;5159054;27;936;-59
2023/09/03 09:55:02;;;;;;;;;;;;;;;29.37;39.05;95629.28;5159139;27;991;-59
2023/09/03 09:57:28;;;;;;;;;;;;;;;29.25;38.96;95617.63;5158660;27;1048;-59
2023/09/03 10:00:01;;;;;;;;;;;;;;;29.26;38.75;95622.06;5158648;27;1031;-59
2023/09/03 10:02:27;;;;;;;;;;;;;;;29.18;37.84;95617.91;5158668;27;972;-59
2023/09/03 10:04:53;;;;;;;;;;;;;;;29.16;38.12;95608.25;5145832;27;2488;-59
2023/09/03 10:07:19;;;;;;;;;;;;;;;29.20;37.59;95601.94;5117645;27;1250;-59
2023/09/03 10:09:45;;;;;;;;;;;;;;;29.33;37.80;95602.53;5117353;28;975;-59
2023/09/03 10:12:12;;;;;;;;;;;;;;;29.36;37.83;95602.00;5116046;28;2562;-59
2023/09/03 10:14:38;;;;;;;;;;;;;;;29.48;36.45;95601.75;5117149;28;1087;-59
2023/09/03 10:17:08;;;;;;;;;;;;;;;29.68;38.00;95592.75;5116982;28;1048;-59
2023/09/03 10:19:40;;;;;;;;;;;;;;;29.81;37.42;95591.44;5117156;28;1033;-59
2023/09/03 10:22:09;;;;;;;;;;;;;;;29.76;38.23;95590.28;5117156;28;1236;-59
2023/09/03 10:24:36;;;;;;;;;;;;;;;29.47;37.41;95598.19;5116297;28;2498;-59
2023/09/03 10:27:04;;;;;;;;;;;;;;;29.29;36.87;95591.25;5098173;27;2892;-59
2023/09/03 10:29:32;;;;;;;;;;;;;;;29.40;37.21;95592.09;5096373;28;1050;-59
2023/09/03 10:32:00;;;;;;;;;;;;;;;29.47;36.95;95583.59;5096308;28;1993;-59
2023/09/03 10:34:30;;;;;;;;;;;;;;;29.44;34.96;95584.13;5096476;28;966;-58
2023/09/03 10:37:03;;;;;;;;;;;;;;;29.49;36.54;95570.38;5096425;28;1013;-58
2023/09/03 10:39:29;;;;;;;;;;;;;;;29.69;36.55;95564.06;5078423;28;1128;-59
2023/09/03 10:42:14;;;;;;;;;;;;;;;29.72;34.29;95571.81;5096529;28;1059;-59
2023/09/03 10:44:50;;;;;;;;;;;;;;;29.83;37.22;95558.91;5129324;27;2468;-59
2023/09/03 10:47:19;;;;;;;;;;;;;;;29.78;37.18;95549.53;5137294;27;992;-59
2023/09/03 10:49:46;;;;;;;;;;;;;;;29.67;36.97;95547.84;5137026;27;1130;-59
2023/09/03 10:52:40;;;;;;;;;;;;;;;29.75;36.49;95547.31;5136876;27;1975;-58
2023/09/03 10:55:15;;;;;;;;;;;;;;;30.08;34.96;95556.16;5136912;27;1060;-59
2023/09/03 10:57:42;;;;;;;;;;;;;;;30.26;35.73;95548.44;5137007;27;993;-59
2023/09/03 11:00:15;;;;;;;;;;;;;;;30.25;35.28;95546.81;5132018;27;2564;-58
2023/09/03 11:02:42;;;;;;;;;;;;;;;30.27;35.16;95539.09;5135858;27;1024;-59
2023/09/03 11:05:21;;;;;;;;;;;;;;;30.12;36.50;95532.47;5138121;27;1264;-60
2023/09/03 11:07:49;;;;;;;;;;;;;;;29.90;35.45;95523.63;5157461;27;1052;-59
2023/09/03 11:10:38;;;;;;;;;;;;;;;29.82;35.04;95532.44;5157486;27;1991;-59
2023/09/03 11:13:07;;;;;;;;;;;;;;;29.75;34.13;95529.97;5143998;27;1126;-59
2023/09/03 11:15:33;;;;;;;;;;;;;;;29.72;34.81;95522.22;5157421;27;975;-59
2023/09/03 11:17:59;;;;;;;;;;;;;;;29.67;33.17;95520.28;5157474;27;1044;-59
2023/09/03 11:20:28;;;;;;;;;;;;;;;29.70;34.36;95510.63;5157397;27;1183;-59
2023/09/03 11:22:55;;;;;;;;;;;;;;;29.72;34.88;95517.53;5115922;28;973;-59
2023/09/03 11:25:30;;;;;;;;;;;;;;;29.71;34.40;95515.88;5115665;28;1039;-58
2023/09/03 11:27:56;;;;;;;;;;;;;;;29.68;33.27;95515.59;5115715;28;968;-58
2023/09/03 11:30:22;;;;;;;;;;;;;;;29.71;34.09;95515.03;5127515;27;2577;-59
2023/09/03 11:32:48;;;;;;;;;;;;;;;29.81;34.30;95509.59;5157173;27;1043;-59
2023/09/03 11:35:14;;;;;;;;;;;;;;;29.86;33.18;95511.50;5156726;27;1103;-58
2023/09/03 11:37:40;;;;;;;;;;;;;;;29.84;34.25;95502.69;5157120;27;1002;-58
2023/09/03 11:40:07;;;;;;;;;;;;;;;29.86;34.06;95495.81;5157020;27;1063;-59
2023/09/03 11:42:33;;;;;;;;;;;;;;;29.94;33.86;95495.25;5156733;27;1055;-59
2023/09/03 11:45:00;;;;;;;;;;;;;;;29.89;33.72;95494.44;5156670;27;956;-59
2023/09/03 11:47:26;;;;;;;;;;;;;;;29.77;34.13;95491.94;5156756;27;1049;-59
2023/09/03 11:49:52;;;;;;;;;;;;;;;29.74;32.81;95492.47;5156522;27;1190;-58
2023/09/03 11:52:18;;;;;;;;;;;;;;;29.68;32.69;95493.56;5156242;27;1909;-59
2023/09/03 11:54:44;;;;;;;;;;;;;;;29.48;32.05;95488.81;5156424;27;973;-59
2023/09/03 11:57:12;;;;;;;;;;;;;;;29.67;32.88;95483.63;5156491;27;1012;-59
2023/09/03 11:59:38;;;;;;;;;;;;;;;29.85;32.13;95476.78;5156223;27;1090;-59
2023/09/03 12:02:04;;;;;;;;;;;;;;;30.00;32.98;95475.97;5156407;27;1253;-59
2023/09/03 12:04:31;;;;;;;;;;;;;;;30.17;33.69;95462.72;5156114;27;1044;-59
2023/09/03 12:06:57;;;;;;;;;;;;;;;30.28;33.16;95466.25;5153261;27;2610;-59
2023/09/03 12:09:24;;;;;;;;;;;;;;;30.20;31.87;95469.59;5155919;27;1012;-59
2023/09/03 12:11:50;;;;;;;;;;;;;;;30.23;30.59;95475.38;5156030;27;1914;-58
2023/09/03 12:14:29;;;;;;;;;;;;;;;30.00;31.02;95471.28;5155816;27;1036;-58
2023/09/03 12:16:55;;;;;;;;;;;;;;;29.88;31.60;95466.03;5156170;27;1035;-59
2023/09/03 12:19:21;;;;;;;;;;;;;;;29.84;31.24;95466.84;5155725;27;1087;-57
2023/09/03 12:21:50;;;;;;;;;;;;;;;29.73;31.23;95455.84;5144378;27;1152;-58
2023/09/03 12:24:16;;;;;;;;;;;;;;;29.97;32.35;95452.50;5135065;27;1000;-59
2023/09/03 12:26:42;;;;;;;;;;;;;;;30.20;31.95;95447.53;5134924;27;1107;-60
2023/09/03 12:29:19;;;;;;;;;;;;;;;30.31;31.85;95449.16;5135558;27;1029;-60
2023/09/03 12:31:45;;;;;;;;;;;;;;;30.41;31.69;95451.94;5134848;27;1996;-59
2023/09/03 12:34:11;;;;;;;;;;;;;;;30.28;32.69;95446.94;5135116;27;973;-60
2023/09/03 12:36:53;;;;;;;;;;;;;;;30.25;32.51;95442.00;5134853;27;1107;-59
2023/09/03 12:39:36;;;;;;;;;;;;;;;30.41;32.28;95445.59;5134928;27;1040;-60
2023/09/03 12:42:03;;;;;;;;;;;;;;;30.53;31.50;95438.66;5134986;27;1004;-60
2023/09/03 12:44:30;;;;;;;;;;;;;;;30.35;32.59;95442.00;5134976;27;1040;-61
2023/09/03 12:46:56;;;;;;;;;;;;;;;30.15;32.74;95434.59;5134707;27;1028;-61
2023/09/03 12:49:22;;;;;;;;;;;;;;;29.97;32.77;95431.31;5134817;27;1031;-60
2023/09/03 12:51:49;;;;;;;;;;;;;;;30.08;31.93;95425.78;5134717;27;1995;-61
2023/09/03 12:54:15;;;;;;;;;;;;;;;30.12;32.21;95419.41;5134486;27;1020;-60
2023/09/03 12:56:41;;;;;;;;;;;;;;;30.21;32.50;95418.88;5134522;27;1040;-60
2023/09/03 12:59:07;;;;;;;;;;;;;;;30.09;32.46;95417.22;5134643;27;1065;-59
2023/09/03 13:01:35;;;;;;;;;;;;;;;30.06;32.02;95416.97;5134618;27;1000;-59